createdAt,value
2022-10-20T00:00:31.758Z,11.40
2022-10-20T00:05:29.858Z,11.40
2022-10-20T00:10:28.021Z,11.40
2022-10-20T00:15:26.117Z,11.30
2022-10-20T00:20:25.659Z,11.40
2022-10-20T00:25:23.746Z,11.30
2022-10-20T00:30:23.774Z,11.30
2022-10-20T00:35:25.135Z,11.30
2022-10-20T00:40:23.284Z,11.20
2022-10-20T00:45:23.359Z,11.20
2022-10-20T00:50:26.375Z,11.10
2022-10-20T00:55:27.762Z,11.20
2022-10-20T01:00:26.329Z,11.00
2022-10-20T01:05:26.568Z,10.90
2022-10-20T01:10:27.147Z,10.90
2022-10-20T01:15:33.252Z,10.90
2022-10-20T01:21:04.854Z,10.90
2022-10-20T01:26:20.102Z,11.00
2022-10-20T01:31:31.142Z,10.90
2022-10-20T01:36:33.485Z,11.00
2022-10-20T01:41:35.893Z,10.90
2022-10-20T01:46:36.894Z,10.90
2022-10-20T01:51:35.160Z,10.90
2022-10-20T01:56:40.432Z,10.90
2022-10-20T02:01:59.966Z,10.90
2022-10-20T02:07:00.943Z,10.80
2022-10-20T02:12:04.748Z,10.80
2022-10-20T02:17:06.393Z,10.80
2022-10-20T02:22:06.454Z,10.80
2022-10-20T02:27:11.524Z,10.80
2022-10-20T02:32:13.068Z,10.80
2022-10-20T02:37:11.718Z,10.70
2022-10-20T02:42:10.038Z,10.60
2022-10-20T02:47:08.607Z,10.50
2022-10-20T02:52:08.082Z,10.50
2022-10-20T02:57:06.181Z,10.50
2022-10-20T03:02:04.342Z,10.70
2022-10-20T03:07:02.506Z,10.40
2022-10-20T03:12:01.969Z,10.40
2022-10-20T03:17:00.150Z,10.40
2022-10-20T03:21:58.258Z,10.30
2022-10-20T03:26:56.376Z,10.30
2022-10-20T03:31:55.846Z,10.20
2022-10-20T03:36:53.980Z,10.10
2022-10-20T03:41:52.117Z,10.20
2022-10-20T03:46:50.613Z,10.10
2022-10-20T03:51:50.046Z,10.10
2022-10-20T03:56:48.151Z,10.10
2022-10-20T04:01:47.334Z,10.10
2022-10-20T04:06:45.523Z,10.10
2022-10-20T04:11:44.992Z,10.10
2022-10-20T04:16:43.081Z,10.00
2022-10-20T04:21:41.457Z,10.00
2022-10-20T04:26:39.669Z,10.00
2022-10-20T04:31:39.181Z,10.10
2022-10-20T04:36:39.006Z,10.10
2022-10-20T04:41:37.098Z,10.00
2022-10-20T04:46:35.238Z,10.00
2022-10-20T04:51:34.701Z,10.00
2022-10-20T04:56:32.899Z,10.00
2022-10-20T05:01:32.097Z,10.00
2022-10-20T05:06:31.956Z,10.00
2022-10-20T05:11:34.856Z,10.10
2022-10-20T05:16:32.934Z,9.90
2022-10-20T05:21:32.761Z,9.90
2022-10-20T05:26:34.937Z,9.90
2022-10-20T05:31:33.085Z,9.80
2022-10-20T05:36:31.461Z,9.80
2022-10-20T05:41:33.374Z,9.70
2022-10-20T05:46:41.491Z,9.70
2022-10-20T05:51:39.932Z,9.60
2022-10-20T05:56:38.041Z,9.50
2022-10-20T06:01:48.087Z,9.50
2022-10-20T06:06:48.942Z,9.40
2022-10-20T06:11:47.832Z,9.40
2022-10-20T06:16:47.294Z,9.30
2022-10-20T06:21:45.514Z,9.30
2022-10-20T06:26:44.708Z,9.40
2022-10-20T06:31:45.102Z,9.50
2022-10-20T06:36:46.016Z,9.40
2022-10-20T06:41:44.123Z,9.40
2022-10-20T06:46:52.230Z,9.50
2022-10-20T06:51:51.968Z,9.60
2022-10-20T06:56:50.064Z,9.80
2022-10-20T07:01:48.702Z,9.70
2022-10-20T07:06:47.735Z,9.80
2022-10-20T07:11:51.161Z,10.10
2022-10-20T07:16:49.472Z,9.80
2022-10-20T07:21:47.564Z,10.00
2022-10-20T07:26:47.028Z,10.20
2022-10-20T07:31:47.340Z,10.00
2022-10-20T07:36:46.178Z,9.90
2022-10-20T07:41:47.334Z,10.00
2022-10-20T07:46:46.902Z,10.10
2022-10-20T07:51:45.054Z,10.30
2022-10-20T07:56:44.796Z,10.40
2022-10-20T08:01:43.159Z,10.50
2022-10-20T08:06:42.760Z,10.60
2022-10-20T08:11:40.881Z,10.60
2022-10-20T08:16:41.609Z,10.70
2022-10-20T08:21:39.671Z,10.80
2022-10-20T08:26:39.133Z,10.90
2022-10-20T08:31:37.881Z,10.90
2022-10-20T08:36:37.196Z,11.10
2022-10-20T08:42:02.635Z,11.30
2022-10-20T08:53:48.787Z,11.50
2022-10-20T08:58:48.271Z,11.70
2022-10-20T09:10:38.147Z,11.90
2022-10-20T09:15:38.942Z,12.10
2022-10-20T09:20:43.684Z,12.20
2022-10-20T09:25:43.209Z,12.40
2022-10-20T09:30:43.164Z,12.60
2022-10-20T09:35:41.668Z,12.90
2022-10-20T09:40:45.604Z,13.00
2022-10-20T09:45:54.195Z,13.10
2022-10-20T09:50:56.095Z,13.20
2022-10-20T10:03:08.217Z,13.50
2022-10-20T10:08:06.485Z,13.70
2022-10-20T10:25:26.272Z,14.10
2022-10-20T10:30:30.190Z,14.10
2022-10-20T10:35:30.899Z,14.10
2022-10-20T10:40:36.061Z,14.10
2022-10-20T10:45:45.762Z,14.00
2022-10-20T10:50:51.449Z,14.10
2022-10-20T10:56:00.279Z,14.40
2022-10-20T11:01:08.992Z,14.30
2022-10-20T11:06:18.036Z,14.40
2022-10-20T11:11:25.873Z,14.70
2022-10-20T11:16:34.035Z,14.70
2022-10-20T11:21:43.122Z,14.80
2022-10-20T11:26:45.480Z,15.00
2022-10-20T11:31:54.527Z,15.20
2022-10-20T11:37:01.165Z,15.20
2022-10-20T11:42:14.863Z,15.00
2022-10-20T11:47:17.047Z,14.90
2022-10-20T11:52:47.886Z,14.90
2022-10-20T11:58:01.141Z,14.80
2022-10-20T12:03:48.283Z,14.90
2022-10-20T12:09:40.317Z,15.00
2022-10-20T12:14:43.433Z,14.90
2022-10-20T12:19:41.716Z,14.80
2022-10-20T12:24:41.589Z,15.00
2022-10-20T12:30:26.738Z,14.90
2022-10-20T12:35:30.842Z,14.70
2022-10-20T12:40:33.617Z,14.60
2022-10-20T12:45:40.505Z,14.60
2022-10-20T12:50:41.540Z,14.70
2022-10-20T12:55:42.126Z,14.80
2022-10-20T13:01:07.910Z,14.80
2022-10-20T13:06:39.200Z,14.90
2022-10-20T13:11:53.990Z,14.70
2022-10-20T13:17:02.830Z,14.70
2022-10-20T13:22:20.987Z,14.70
2022-10-20T13:27:19.288Z,14.70
2022-10-20T13:32:24.107Z,14.60
2022-10-20T13:37:34.906Z,14.70
2022-10-20T13:42:49.576Z,14.90
2022-10-20T13:47:51.931Z,15.00
2022-10-20T13:52:55.072Z,15.00
2022-10-20T13:57:56.394Z,15.00
2022-10-20T14:03:00.982Z,15.00
2022-10-20T14:08:06.180Z,15.00
2022-10-20T14:13:10.064Z,15.20
2022-10-20T14:18:22.735Z,15.20
2022-10-20T14:23:20.927Z,15.10
2022-10-20T14:28:21.765Z,15.00
2022-10-20T14:33:21.458Z,15.10
2022-10-20T14:38:21.557Z,14.90
2022-10-20T14:43:22.452Z,14.80
2022-10-20T14:48:22.236Z,14.80
2022-10-20T14:53:31.304Z,14.80
2022-10-20T14:58:36.553Z,14.80
2022-10-20T15:03:38.686Z,14.80
2022-10-20T15:08:36.906Z,14.70
2022-10-20T15:13:35.292Z,14.60
2022-10-20T15:18:37.809Z,14.60
2022-10-20T15:23:39.467Z,14.50
2022-10-20T15:28:39.862Z,14.50
2022-10-20T15:33:38.246Z,14.50
2022-10-20T15:38:36.347Z,14.40
2022-10-20T15:43:35.810Z,14.30
2022-10-20T15:48:33.906Z,14.40
2022-10-20T15:53:32.090Z,14.30
2022-10-20T15:58:30.219Z,14.30
2022-10-20T16:03:29.694Z,14.40
2022-10-20T16:08:28.586Z,14.40
2022-10-20T16:13:26.813Z,14.40
2022-10-20T16:18:24.950Z,14.30
2022-10-20T16:23:24.402Z,14.30
2022-10-20T16:28:22.499Z,14.20
2022-10-20T16:33:20.604Z,14.10
2022-10-20T16:38:18.719Z,14.10
2022-10-20T16:43:18.135Z,14.20
2022-10-20T16:48:16.226Z,14.20
2022-10-20T16:53:14.381Z,14.20
2022-10-20T16:58:12.564Z,14.20
2022-10-20T17:03:12.043Z,14.20
2022-10-20T17:08:10.141Z,14.20
2022-10-20T17:13:10.218Z,14.20
2022-10-20T17:18:08.342Z,14.20
2022-10-20T17:23:07.839Z,14.00
2022-10-20T17:28:06.124Z,14.10
2022-10-20T17:33:04.210Z,14.10
2022-10-20T17:38:04.557Z,14.00
2022-10-20T17:43:04.411Z,14.10
2022-10-20T17:48:02.535Z,14.10
2022-10-20T17:53:01.234Z,14.10
2022-10-20T17:58:03.608Z,14.10
2022-10-20T18:03:05.243Z,14.10
2022-10-20T18:08:03.343Z,14.10
2022-10-20T18:13:01.495Z,14.10
2022-10-20T18:17:59.585Z,14.00
2022-10-20T18:22:59.046Z,14.00
2022-10-20T18:27:57.180Z,14.00
2022-10-20T18:32:55.282Z,14.00
2022-10-20T18:37:57.455Z,14.00
2022-10-20T18:42:56.994Z,14.00
2022-10-20T18:47:55.175Z,13.90
2022-10-20T18:52:53.405Z,13.90
2022-10-20T18:57:51.559Z,14.00
2022-10-20T19:02:55.794Z,13.90
2022-10-20T19:07:56.078Z,14.00
2022-10-20T19:12:54.189Z,13.90
2022-10-20T19:17:55.307Z,13.90
2022-10-20T19:22:56.189Z,13.90
2022-10-20T19:27:54.296Z,13.90
2022-10-20T19:32:54.921Z,13.90
2022-10-20T19:37:53.062Z,13.90
2022-10-20T19:42:51.157Z,13.90
2022-10-20T19:47:49.277Z,13.90
2022-10-20T19:52:48.765Z,13.90
2022-10-20T19:57:46.918Z,13.90
2022-10-20T20:02:45.012Z,13.90
2022-10-20T20:07:43.137Z,13.90
2022-10-20T20:12:42.651Z,14.00
2022-10-20T20:17:40.803Z,13.90
2022-10-20T20:22:38.901Z,13.90
2022-10-20T20:27:37.334Z,13.90
2022-10-20T20:32:38.639Z,13.90
2022-10-20T20:37:38.659Z,13.90
2022-10-20T20:42:37.084Z,13.90
2022-10-20T20:47:36.822Z,13.90
2022-10-20T20:52:35.272Z,13.90
2022-10-20T20:57:33.322Z,13.90
2022-10-20T21:02:31.418Z,13.90
2022-10-20T21:07:30.845Z,13.90
2022-10-20T21:12:31.781Z,13.90
2022-10-20T21:17:32.697Z,13.80
2022-10-20T21:22:32.162Z,13.80
2022-10-20T21:27:30.371Z,13.80
2022-10-20T21:32:28.470Z,13.80
2022-10-20T21:37:26.588Z,13.80
2022-10-20T21:42:26.178Z,13.70
2022-10-20T21:47:24.323Z,13.70
2022-10-20T21:52:22.422Z,13.70
2022-10-20T21:57:20.752Z,13.60
2022-10-20T22:02:20.224Z,13.60
2022-10-20T22:07:18.375Z,13.60
2022-10-20T22:12:16.494Z,13.70
2022-10-20T22:17:15.144Z,13.60
2022-10-20T22:22:14.614Z,13.60
2022-10-20T22:27:25.023Z,13.60
2022-10-20T22:32:30.795Z,13.60
2022-10-20T22:37:30.301Z,13.60
2022-10-20T22:42:28.418Z,13.60
2022-10-20T22:47:26.508Z,13.50
2022-10-20T22:52:25.033Z,13.50
2022-10-20T22:57:24.570Z,13.50
2022-10-20T23:02:22.706Z,13.50
2022-10-20T23:07:21.075Z,13.50
2022-10-20T23:12:19.313Z,13.50
2022-10-20T23:17:18.783Z,13.50
2022-10-20T23:22:16.956Z,13.40
2022-10-20T23:27:15.148Z,13.40
2022-10-20T23:32:13.287Z,13.40
2022-10-20T23:37:12.752Z,13.40
2022-10-20T23:42:10.849Z,13.40
2022-10-20T23:47:08.987Z,13.40
2022-10-20T23:52:07.096Z,13.40
2022-10-20T23:57:06.607Z,13.40
